Time;durP1;ratioP1;P1;durP2;ratioP2;P2;SDS_P1;SDS_P2;PMS_P1;PMS_P2;Temp;Humidity;BMP_temperature;BMP_pressure;BME280_temperature;BME280_humidity;BME280_pressure;Samples;Min_cycle;Max_cycle;Signal;HPM_P1;HPM_P2
2021/12/01 00:11:03;;;;;;;7.30;3.42;;;;;;;4.59;100.00;99245.53;6727626;23;20090;-94
2021/12/01 00:14:06;;;;;;;7.53;4.07;;;;;;;4.60;100.00;99240.31;6154851;29;20084;-95
2021/12/01 00:17:13;;;;;;;6.28;3.30;;;;;;;4.64;100.00;99226.31;6156444;28;20047;-95
2021/12/01 00:23:41;;;;;;;7.85;4.07;;;;;;;4.72;100.00;99210.34;6315985;23;20064;-95
2021/12/01 00:30:36;;;;;;;7.28;3.20;;;;;;;4.66;100.00;99195.44;6919743;23;20033;-95
2021/12/01 00:33:40;;;;;;;7.25;3.50;;;;;;;4.68;100.00;99181.59;6083459;29;20071;-94
2021/12/01 00:36:42;;;;;;;10.65;4.00;;;;;;;4.68;100.00;99166.22;6079680;29;20056;-94
2021/12/01 00:39:45;;;;;;;5.38;3.33;;;;;;;4.69;100.00;99162.69;6066297;29;20499;-93
2021/12/01 00:42:47;;;;;;;6.65;3.17;;;;;;;4.67;100.00;99159.47;6045017;29;20085;-92
2021/12/01 00:45:55;;;;;;;9.20;3.50;;;;;;;4.69;100.00;99151.63;6041703;29;20061;-92
2021/12/01 00:48:57;;;;;;;7.07;3.17;;;;;;;4.68;100.00;99139.78;6046500;29;20043;-92
2021/12/01 00:52:00;;;;;;;4.68;2.97;;;;;;;4.68;100.00;99132.06;6042982;29;20085;-92
2021/12/01 00:55:02;;;;;;;8.40;2.88;;;;;;;4.68;100.00;99129.53;6038670;29;20521;-92
2021/12/01 00:58:05;;;;;;;11.48;3.10;;;;;;;4.66;100.00;99113.44;6043497;29;20116;-92
2021/12/01 01:01:10;;;;;;;3.25;2.47;;;;;;;4.69;100.00;99114.00;6028979;29;20060;-91
2021/12/01 01:04:13;;;;;;;2.92;1.75;;;;;;;4.68;100.00;99103.88;6042755;29;20044;-91
2021/12/01 01:07:15;;;;;;;6.35;1.90;;;;;;;4.70;100.00;99095.16;6042206;29;20503;-91
2021/12/01 01:16:52;;;;;;;8.98;1.83;;;;;;;4.76;100.00;99088.72;6044326;29;20410;-91
2021/12/01 01:19:54;;;;;;;3.00;1.50;;;;;;;4.78;100.00;99078.34;6042555;29;20641;-91
2021/12/01 01:22:56;;;;;;;2.90;1.70;;;;;;;4.78;100.00;99065.53;6043314;29;20037;-91
2021/12/01 01:25:59;;;;;;;2.00;1.40;;;;;;;4.81;100.00;99053.28;6045597;29;20072;-91
2021/12/01 01:29:05;;;;;;;2.92;1.52;;;;;;;4.81;100.00;99055.84;6038813;29;20051;-91
2021/12/01 01:32:07;;;;;;;2.78;1.60;;;;;;;4.85;100.00;99041.06;6055672;29;20060;-91
2021/12/01 01:35:09;;;;;;;3.35;1.98;;;;;;;4.87;100.00;99044.28;6042552;29;20088;-91
2021/12/01 01:38:12;;;;;;;3.47;1.88;;;;;;;4.86;100.00;99025.53;6043365;29;20413;-91
2021/12/01 01:41:14;;;;;;;3.30;2.40;;;;;;;4.92;100.00;99025.06;6042642;29;20127;-91
2021/12/01 01:44:17;;;;;;;4.78;3.00;;;;;;;4.96;100.00;99012.78;6041526;29;20048;-91
2021/12/01 01:47:20;;;;;;;4.25;2.83;;;;;;;4.93;100.00;99006.16;6041612;29;20056;-91
2021/12/01 01:53:25;;;;;;;4.07;2.50;;;;;;;4.89;100.00;98994.53;6043054;29;20045;-90
2021/12/01 01:56:28;;;;;;;3.30;2.60;;;;;;;4.89;100.00;98976.56;6042209;29;20093;-91
2021/12/01 01:59:30;;;;;;;3.92;2.45;;;;;;;4.93;100.00;98966.91;6042905;29;20052;-91
2021/12/01 02:02:32;;;;;;;4.22;2.33;;;;;;;4.94;100.00;98966.78;6043459;29;20530;-91
2021/12/01 02:05:37;;;;;;;4.60;2.45;;;;;;;4.96;100.00;98959.75;6046100;29;20049;-91
2021/12/01 02:08:42;;;;;;;4.22;2.55;;;;;;;5.02;100.00;98957.63;6044237;29;20499;-91
2021/12/01 02:11:45;;;;;;;4.07;2.63;;;;;;;5.02;100.00;98939.69;6041716;29;20060;-91
2021/12/01 02:14:47;;;;;;;4.63;2.58;;;;;;;5.01;100.00;98922.69;6038531;29;20041;-90
2021/12/01 02:17:49;;;;;;;4.18;2.35;;;;;;;5.02;100.00;98927.69;6041311;29;20045;-90
2021/12/01 02:21:26;;;;;;;4.82;2.20;;;;;;;5.02;100.00;98914.03;6041554;29;20045;-90
2021/12/01 02:24:36;;;;;;;3.13;2.05;;;;;;;5.01;100.00;98917.56;6035997;29;20037;-90
2021/12/01 02:27:38;;;;;;;2.50;1.95;;;;;;;4.97;100.00;98904.19;6046267;29;20098;-90
2021/12/01 02:30:39;;;;;;;3.10;2.20;;;;;;;4.99;100.00;98899.72;6038552;29;20052;-90
2021/12/01 02:33:41;;;;;;;3.90;2.15;;;;;;;5.06;100.00;98894.91;6039065;29;20055;-90
2021/12/01 02:36:50;;;;;;;3.58;2.22;;;;;;;5.05;100.00;98878.72;6044682;29;20140;-90
2021/12/01 02:39:53;;;;;;;5.40;2.47;;;;;;;5.05;100.00;98868.47;6040484;29;20381;-90
2021/12/01 02:42:54;;;;;;;2.42;2.03;;;;;;;5.04;100.00;98851.44;6042529;29;20097;-90
2021/12/01 02:45:56;;;;;;;2.95;1.50;;;;;;;5.12;100.00;98848.25;6042821;29;20391;-90
2021/12/01 02:48:59;;;;;;;3.38;1.70;;;;;;;5.16;100.00;98829.09;6041118;29;20075;-90
2021/12/01 02:52:01;;;;;;;4.68;2.85;;;;;;;5.21;100.00;98824.38;6043649;29;20777;-90
2021/12/01 02:55:06;;;;;;;2.35;1.60;;;;;;;5.24;100.00;98806.19;6037053;29;20052;-90
2021/12/01 02:58:08;;;;;;;3.35;2.00;;;;;;;5.28;100.00;98811.88;6045644;29;20059;-90
2021/12/01 03:01:17;;;;;;;2.13;1.63;;;;;;;5.29;100.00;98804.06;6049239;29;20053;-90
2021/12/01 03:04:21;;;;;;;1.63;1.13;;;;;;;5.30;100.00;98799.72;6043704;29;20388;-90
2021/12/01 03:07:23;;;;;;;1.75;1.10;;;;;;;5.39;100.00;98786.94;6032320;29;20053;-90
2021/12/01 03:10:26;;;;;;;2.63;0.60;;;;;;;5.51;100.00;98782.47;6037451;29;20054;-90
2021/12/01 03:13:27;;;;;;;0.70;0.65;;;;;;;5.65;100.00;98783.88;6037152;29;20398;-90
2021/12/01 03:16:30;;;;;;;1.63;0.70;;;;;;;5.77;100.00;98775.09;6037212;29;20052;-90
2021/12/01 03:19:32;;;;;;;0.60;0.60;;;;;;;5.85;100.00;98771.88;6036456;29;20048;-90
2021/12/01 03:22:34;;;;;;;0.57;0.57;;;;;;;5.95;100.00;98759.88;6041875;29;20116;-90
2021/12/01 03:25:37;;;;;;;0.77;0.60;;;;;;;6.00;100.00;98764.59;6038378;29;20088;-90
2021/12/01 03:28:39;;;;;;;0.60;0.60;;;;;;;6.16;100.00;98759.75;6036945;29;20069;-90
2021/12/01 03:31:42;;;;;;;0.90;0.80;;;;;;;6.33;100.00;98741.97;6041663;29;20045;-90
2021/12/01 03:34:44;;;;;;;0.90;0.80;;;;;;;6.34;100.00;98735.91;6038671;29;21670;-90
2021/12/01 03:37:47;;;;;;;1.83;1.10;;;;;;;6.38;100.00;98735.47;6035420;29;20052;-90
2021/12/01 03:40:49;;;;;;;2.22;1.50;;;;;;;6.50;100.00;98725.84;6048444;29;20065;-91
2021/12/01 03:43:51;;;;;;;1.75;1.50;;;;;;;6.67;100.00;98722.53;6035420;29;20150;-90
2021/12/01 03:46:53;;;;;;;3.40;1.60;;;;;;;6.80;100.00;98724.00;6034102;29;20059;-90
2021/12/01 03:49:56;;;;;;;2.38;1.80;;;;;;;6.86;100.00;98706.25;6040917;29;20058;-90
2021/12/01 03:52:58;;;;;;;2.40;1.80;;;;;;;6.89;100.00;98702.56;6041241;29;20057;-90
2021/12/01 03:56:01;;;;;;;2.08;1.88;;;;;;;6.87;100.00;98699.31;6040729;29;20175;-90
2021/12/01 03:59:04;;;;;;;2.45;1.75;;;;;;;6.88;100.00;98698.38;6035679;29;20112;-90
2021/12/01 04:02:06;;;;;;;1.92;1.70;;;;;;;6.93;100.00;98693.59;6043291;29;20171;-90
2021/12/01 04:05:10;;;;;;;2.13;1.92;;;;;;;6.95;100.00;98685.75;6045683;29;20039;-90
2021/12/01 04:08:12;;;;;;;2.30;1.85;;;;;;;6.95;100.00;98673.69;6044664;29;20497;-90
2021/12/01 04:11:15;;;;;;;2.13;1.70;;;;;;;6.94;100.00;98672.09;6032741;29;20132;-90
2021/12/01 04:14:17;;;;;;;2.40;1.98;;;;;;;6.90;100.00;98673.31;6045025;29;20478;-90
2021/12/01 04:17:20;;;;;;;2.45;1.90;;;;;;;7.00;100.00;98670.69;6047470;29;20477;-90
2021/12/01 04:20:22;;;;;;;2.65;2.45;;;;;;;7.05;100.00;98664.16;6045780;29;20071;-90
2021/12/01 04:23:24;;;;;;;2.67;1.80;;;;;;;7.02;100.00;98659.31;6049197;29;20109;-90
2021/12/01 04:26:31;;;;;;;1.60;1.50;;;;;;;7.05;100.00;98656.44;6046282;29;20048;-90
2021/12/01 04:29:33;;;;;;;3.15;1.60;;;;;;;7.04;100.00;98647.13;6046921;29;20052;-90
2021/12/01 04:32:36;;;;;;;1.42;1.33;;;;;;;7.06;100.00;98642.63;6044966;29;20550;-90
2021/12/01 04:35:38;;;;;;;1.33;1.23;;;;;;;7.05;100.00;98633.28;6045197;29;20049;-90
2021/12/01 04:38:41;;;;;;;1.20;1.10;;;;;;;7.04;100.00;98638.59;6031623;29;20064;-90
2021/12/01 04:41:54;;;;;;;1.13;0.90;;;;;;;6.99;100.00;98628.72;6042434;29;20057;-90
2021/12/01 04:44:56;;;;;;;1.23;1.10;;;;;;;7.04;100.00;98628.31;6035730;29;20044;-90
2021/12/01 04:48:00;;;;;;;2.65;1.00;;;;;;;7.01;100.00;98613.97;6043379;29;20485;-90
2021/12/01 04:51:02;;;;;;;0.90;0.90;;;;;;;7.10;100.00;98609.69;6044481;29;20041;-90
2021/12/01 04:54:04;;;;;;;1.90;1.10;;;;;;;7.02;100.00;98618.16;6041801;29;20045;-90
2021/12/01 04:57:07;;;;;;;1.10;1.00;;;;;;;7.02;100.00;98607.84;6043170;29;20631;-90
2021/12/01 05:00:14;;;;;;;1.02;1.00;;;;;;;6.98;100.00;98593.69;6043935;29;20056;-90
2021/12/01 05:03:16;;;;;;;1.45;1.02;;;;;;;6.96;100.00;98587.06;6042092;29;20041;-90
2021/12/01 05:06:25;;;;;;;1.23;1.13;;;;;;;7.00;100.00;98589.19;6043731;29;20045;-90
2021/12/01 05:09:27;;;;;;;1.67;1.10;;;;;;;6.93;100.00;98577.06;6040793;29;20518;-91
2021/12/01 05:12:29;;;;;;;1.42;1.33;;;;;;;6.94;100.00;98563.25;6036738;29;20059;-91
2021/12/01 05:15:32;;;;;;;1.65;1.10;;;;;;;6.87;100.00;98571.53;6040208;29;20056;-91
2021/12/01 05:18:34;;;;;;;1.20;1.10;;;;;;;6.86;100.00;98561.44;6034881;29;20138;-91
2021/12/01 05:21:40;;;;;;;1.10;1.00;;;;;;;6.84;100.00;98558.97;6047432;29;20052;-90
2021/12/01 05:24:42;;;;;;;2.38;0.98;;;;;;;6.83;100.00;98554.81;6044177;29;20630;-91
2021/12/01 05:27:44;;;;;;;0.70;0.70;;;;;;;6.80;100.00;98546.56;6035006;29;20057;-91
2021/12/01 05:30:47;;;;;;;0.80;0.80;;;;;;;6.76;100.00;98542.66;6031327;29;20049;-91
2021/12/01 05:33:49;;;;;;;1.35;0.70;;;;;;;6.80;100.00;98546.56;6027057;29;20040;-91
2021/12/01 05:36:52;;;;;;;0.80;0.75;;;;;;;6.80;100.00;98541.41;6051886;29;20053;-91
2021/12/01 05:39:54;;;;;;;1.63;0.82;;;;;;;6.82;100.00;98521.50;6038012;29;20074;-91
2021/12/01 05:42:57;;;;;;;1.20;0.70;;;;;;;6.79;100.00;98509.75;6033248;29;20042;-91
2021/12/01 05:45:59;;;;;;;0.50;0.50;;;;;;;6.82;100.00;98517.16;6036689;29;20037;-91
2021/12/01 05:49:04;;;;;;;0.75;0.65;;;;;;;6.73;100.00;98515.47;6034824;29;20060;-91
2021/12/01 05:52:07;;;;;;;0.60;0.60;;;;;;;6.69;100.00;98499.53;6042520;29;20053;-91
2021/12/01 05:55:11;;;;;;;0.65;0.60;;;;;;;6.66;100.00;98502.41;6038489;29;20049;-91
2021/12/01 05:58:13;;;;;;;0.60;0.60;;;;;;;6.74;100.00;98488.81;6039618;29;20044;-91
2021/12/01 06:01:15;;;;;;;0.50;0.50;;;;;;;6.75;100.00;98497.34;6043006;29;20048;-91
2021/12/01 06:04:17;;;;;;;0.60;0.60;;;;;;;6.71;100.00;98489.13;6036972;29;20070;-91
2021/12/01 06:07:19;;;;;;;0.60;0.60;;;;;;;6.68;100.00;98502.25;6043431;29;20045;-91
2021/12/01 06:10:22;;;;;;;0.70;0.70;;;;;;;6.73;100.00;98494.09;6045493;29;20045;-91
2021/12/01 06:13:25;;;;;;;1.30;0.60;;;;;;;6.64;100.00;98483.75;6043857;29;20053;-91
2021/12/01 06:16:28;;;;;;;0.40;0.40;;;;;;;6.61;100.00;98473.78;6041337;29;20506;-92
2021/12/01 06:19:30;;;;;;;0.50;0.50;;;;;;;6.62;100.00;98457.38;6037984;29;20771;-91
2021/12/01 06:22:32;;;;;;;0.63;0.50;;;;;;;6.52;100.00;98448.13;6042640;29;20053;-91
2021/12/01 06:25:35;;;;;;;0.88;0.60;;;;;;;6.54;100.00;98438.53;6048624;29;20163;-91
2021/12/01 06:28:51;;;;;;;0.68;0.55;;;;;;;6.48;100.00;98447.59;6044983;29;20052;-91
2021/12/01 06:31:53;;;;;;;0.68;0.50;;;;;;;6.43;100.00;98430.06;6047840;29;20072;-91
2021/12/01 06:34:55;;;;;;;0.82;0.80;;;;;;;6.45;100.00;98435.84;6044402;29;20085;-91
2021/12/01 06:37:58;;;;;;;0.70;0.70;;;;;;;6.52;100.00;98430.16;6046367;29;20130;-92
2021/12/01 06:41:00;;;;;;;1.20;0.70;;;;;;;6.46;100.00;98423.84;6043742;29;20604;-91
2021/12/01 06:44:04;;;;;;;1.02;0.80;;;;;;;6.46;100.00;98414.34;6039787;29;20705;-91
2021/12/01 06:47:06;;;;;;;0.95;0.90;;;;;;;6.48;100.00;98414.19;6047807;29;20197;-91
2021/12/01 06:50:10;;;;;;;1.65;0.98;;;;;;;6.52;100.00;98397.53;6058140;29;20052;-91
2021/12/01 06:53:12;;;;;;;0.88;0.88;;;;;;;6.50;100.00;98394.28;6043706;29;20525;-91
2021/12/01 06:56:22;;;;;;;1.00;0.70;;;;;;;6.49;100.00;98386.75;6034711;29;20069;-92
2021/12/01 06:59:25;;;;;;;1.10;0.80;;;;;;;6.48;100.00;98378.22;6043926;29;20053;-92
2021/12/01 07:02:27;;;;;;;1.00;0.80;;;;;;;6.46;100.00;98364.72;6051064;29;20052;-91
2021/12/01 07:05:29;;;;;;;1.02;0.90;;;;;;;6.46;100.00;98359.59;6046146;29;20079;-92
2021/12/01 07:08:32;;;;;;;1.13;0.82;;;;;;;6.40;100.00;98357.59;6051315;29;20045;-92
2021/12/01 07:11:34;;;;;;;1.50;1.10;;;;;;;6.43;100.00;98339.31;6045603;29;20056;-91
2021/12/01 07:14:37;;;;;;;1.23;1.00;;;;;;;6.39;100.00;98328.53;6050349;29;20048;-92
2021/12/01 07:17:40;;;;;;;1.25;1.08;;;;;;;6.48;100.00;98313.97;6045322;29;20049;-92
2021/12/01 07:20:45;;;;;;;1.20;1.10;;;;;;;6.42;100.00;98312.00;6045191;29;20688;-92
2021/12/01 07:23:47;;;;;;;1.50;0.90;;;;;;;6.40;100.00;98304.44;6054872;29;20120;-92
2021/12/01 07:27:03;;;;;;;0.90;0.70;;;;;;;6.45;100.00;98268.00;6048704;29;20053;-92
2021/12/01 07:30:06;;;;;;;1.08;0.88;;;;;;;6.52;100.00;98263.88;6046334;29;20037;-92
2021/12/01 07:33:08;;;;;;;1.00;0.90;;;;;;;6.53;100.00;98249.28;6051762;29;20499;-92
2021/12/01 07:36:10;;;;;;;1.98;1.00;;;;;;;6.45;100.00;98253.41;6049249;29;20057;-92
2021/12/01 07:39:12;;;;;;;1.30;0.80;;;;;;;6.46;100.00;98251.66;6052045;29;20119;-92
2021/12/01 07:42:15;;;;;;;0.73;0.73;;;;;;;6.48;100.00;98265.13;6053162;29;21376;-92
2021/12/01 07:45:18;;;;;;;0.80;0.80;;;;;;;6.50;100.00;98255.53;6040070;29;20110;-93
2021/12/01 07:48:20;;;;;;;1.23;0.80;;;;;;;6.53;100.00;98233.84;6056582;29;20044;-92
2021/12/01 07:51:22;;;;;;;1.40;0.90;;;;;;;6.56;100.00;98242.06;6044055;29;20048;-92
2021/12/01 07:54:25;;;;;;;0.82;0.70;;;;;;;6.58;100.00;98224.72;6047930;29;20113;-92
2021/12/01 07:57:27;;;;;;;1.35;1.10;;;;;;;6.57;100.00;98220.53;6044443;29;20061;-93
2021/12/01 08:00:30;;;;;;;1.45;0.80;;;;;;;6.58;100.00;98216.22;6047755;29;20175;-93
2021/12/01 08:03:32;;;;;;;1.23;0.85;;;;;;;6.61;100.00;98216.72;6052261;29;20041;-93
2021/12/01 08:06:35;;;;;;;0.80;0.80;;;;;;;6.57;100.00;98202.56;6051347;29;20505;-91
2021/12/01 08:09:37;;;;;;;1.23;0.73;;;;;;;6.60;100.00;98183.44;6051168;29;20089;-92
2021/12/01 08:12:39;;;;;;;0.95;0.90;;;;;;;6.68;100.00;98193.75;6033906;29;20060;-92
2021/12/01 08:15:44;;;;;;;1.17;0.90;;;;;;;6.71;100.00;98180.63;6049369;29;20055;-93
2021/12/01 08:18:56;;;;;;;1.48;0.90;;;;;;;6.69;100.00;98185.09;6054626;29;20045;-93
2021/12/01 08:21:58;;;;;;;0.60;0.60;;;;;;;6.75;100.00;98175.97;6050298;29;20368;-93
2021/12/01 08:25:00;;;;;;;0.93;0.75;;;;;;;6.81;100.00;98177.94;6046277;29;20086;-92
2021/12/01 08:28:02;;;;;;;0.75;0.70;;;;;;;6.78;100.00;98166.19;6047951;29;20075;-92
2021/12/01 08:31:05;;;;;;;0.70;0.70;;;;;;;6.75;100.00;98152.81;6044948;29;20045;-93
2021/12/01 08:34:08;;;;;;;0.82;0.82;;;;;;;6.78;100.00;98158.47;6040549;29;20049;-93
2021/12/01 08:37:10;;;;;;;0.60;0.60;;;;;;;6.76;100.00;98159.56;6042544;29;20041;-93
2021/12/01 08:40:26;;;;;;;0.90;0.60;;;;;;;6.79;100.00;98156.69;6055399;29;20041;-93
2021/12/01 08:43:28;;;;;;;0.70;0.70;;;;;;;6.86;100.00;98155.13;6044328;29;20045;-92
2021/12/01 08:46:30;;;;;;;0.70;0.70;;;;;;;6.85;100.00;98166.34;6035319;29;20049;-92
2021/12/01 08:49:32;;;;;;;0.70;0.60;;;;;;;6.96;100.00;98144.72;6049097;29;20793;-92
2021/12/01 08:52:34;;;;;;;0.82;0.70;;;;;;;6.99;100.00;98149.53;6049613;29;20045;-92
2021/12/01 08:55:40;;;;;;;2.47;1.33;;;;;;;6.96;100.00;98155.00;6046085;29;20048;-93
2021/12/01 08:58:43;;;;;;;2.05;0.80;;;;;;;6.84;100.00;98137.28;6042093;29;20477;-93
2021/12/01 09:01:45;;;;;;;0.80;0.80;;;;;;;6.86;100.00;98134.56;6044494;29;20050;-93
2021/12/01 09:04:51;;;;;;;1.02;0.93;;;;;;;6.89;100.00;98147.09;6045094;29;20052;-93
2021/12/01 09:07:53;;;;;;;0.88;0.88;;;;;;;6.83;100.00;98127.13;6048284;29;20053;-93
2021/12/01 09:10:58;;;;;;;0.98;0.80;;;;;;;6.79;100.00;98129.22;6048207;29;20047;-93
2021/12/01 09:14:01;;;;;;;1.60;1.00;;;;;;;6.81;100.00;98113.66;6047803;29;20049;-93
2021/12/01 09:17:03;;;;;;;1.05;0.90;;;;;;;6.80;100.00;98124.88;6059410;29;20053;-93
2021/12/01 09:20:06;;;;;;;1.23;1.10;;;;;;;6.83;100.00;98116.84;6048586;29;20052;-93
2021/12/01 09:23:15;;;;;;;1.05;0.93;;;;;;;6.77;100.00;98110.56;6047557;29;20047;-93
2021/12/01 09:26:18;;;;;;;1.08;0.88;;;;;;;6.76;100.00;98098.69;6046373;29;20128;-92
2021/12/01 09:29:20;;;;;;;1.08;0.90;;;;;;;6.74;100.00;98105.75;6050271;29;20153;-93
2021/12/01 09:32:23;;;;;;;1.48;0.88;;;;;;;6.75;100.00;98094.50;6048694;29;20044;-93
2021/12/01 09:35:25;;;;;;;0.93;0.80;;;;;;;6.74;100.00;98087.75;6048326;29;20052;-92
2021/12/01 09:38:27;;;;;;;1.38;1.02;;;;;;;6.84;100.00;98088.41;6048160;29;20124;-92
2021/12/01 09:41:30;;;;;;;0.70;0.70;;;;;;;6.92;100.00;98085.06;6049535;29;20578;-93
2021/12/01 09:44:32;;;;;;;1.85;0.70;;;;;;;6.95;100.00;98071.06;6048111;29;20177;-93
2021/12/01 09:47:34;;;;;;;1.08;0.98;;;;;;;6.98;100.00;98063.88;6049744;29;20139;-94
2021/12/01 09:50:44;;;;;;;1.00;0.70;;;;;;;7.07;100.00;98042.31;6048558;29;20128;-92
2021/12/01 09:53:49;;;;;;;0.70;0.70;;;;;;;7.11;100.00;98046.19;6050668;29;20128;-93
2021/12/01 09:56:50;;;;;;;0.95;0.70;;;;;;;7.10;100.00;98047.16;6053157;29;20124;-93
2021/12/01 09:59:53;;;;;;;2.17;0.85;;;;;;;7.20;100.00;98025.59;6052778;29;20519;-93
2021/12/01 10:02:56;;;;;;;0.68;0.68;;;;;;;7.27;100.00;98029.94;6049839;29;20558;-93
2021/12/01 10:09:07;;;;;;;0.60;0.60;;;;;;;7.23;100.00;98012.41;6060779;29;20689;-93
2021/12/01 10:12:11;;;;;;;0.90;0.82;;;;;;;7.30;100.00;98015.94;6069095;29;20056;-93
2021/12/01 10:15:27;;;;;;;1.63;0.60;;;;;;;7.56;100.00;98008.03;6046715;29;20108;-92
2021/12/01 10:18:36;;;;;;;0.93;0.50;;;;;;;7.84;100.00;97985.25;6064060;29;20407;-93
2021/12/01 10:21:49;;;;;;;1.67;0.57;;;;;;;8.07;100.00;97984.50;6051367;29;20049;-93
2021/12/01 10:24:52;;;;;;;1.00;0.63;;;;;;;8.12;100.00;97977.91;6047718;29;20091;-92
2021/12/01 10:27:54;;;;;;;0.93;0.55;;;;;;;8.15;100.00;97964.69;6050408;29;20045;-93
2021/12/01 10:30:56;;;;;;;2.67;0.50;;;;;;;8.15;100.00;97972.41;6051404;29;20048;-93
2021/12/01 10:34:31;;;;;;;0.57;0.57;;;;;;;8.07;100.00;97964.69;6049134;29;20047;-93
2021/12/01 10:37:34;;;;;;;0.52;0.40;;;;;;;8.03;100.00;97958.31;6051264;29;20044;-92
2021/12/01 10:40:37;;;;;;;0.40;0.40;;;;;;;7.99;100.00;97939.78;6042313;29;20037;-91
2021/12/01 10:43:47;;;;;;;0.50;0.50;;;;;;;8.02;100.00;97950.72;6049748;29;20145;-92
2021/12/01 10:46:53;;;;;;;0.47;0.40;;;;;;;8.02;100.00;97927.53;6049596;29;20102;-93
2021/12/01 10:49:58;;;;;;;1.85;0.50;;;;;;;7.97;100.00;97938.34;6051412;29;20052;-93
2021/12/01 10:53:10;;;;;;;0.30;0.30;;;;;;;7.87;100.00;97925.66;6052201;29;20049;-93
2021/12/01 10:56:14;;;;;;;0.40;0.40;;;;;;;7.90;100.00;97907.34;6051616;29;20061;-93
2021/12/01 10:59:17;;;;;;;0.30;0.30;;;;;;;8.05;100.00;97899.69;6034977;29;20491;-92
2021/12/01 11:02:20;;;;;;;3.03;0.60;;;;;;;8.21;100.00;97880.72;6049044;29;20049;-93
2021/12/01 11:05:38;;;;;;;0.40;0.38;;;;;;;8.36;100.00;97879.00;6053451;29;20045;-92
2021/12/01 11:08:45;;;;;;;0.40;0.40;;;;;;;8.57;100.00;97868.09;6067010;29;20037;-92
2021/12/01 11:11:51;;;;;;;0.40;0.40;;;;;;;8.77;100.00;97865.84;6052969;29;20056;-93
2021/12/01 11:15:23;;;;;;;0.30;0.30;;;;;;;8.92;100.00;97852.13;6071021;29;20128;-93
2021/12/01 11:18:29;;;;;;;0.30;0.30;;;;;;;9.01;100.00;97851.88;6077897;29;20525;-94
2021/12/01 11:21:42;;;;;;;0.85;0.30;;;;;;;9.15;100.00;97844.34;6089533;29;20495;-93
2021/12/01 11:24:45;;;;;;;0.85;0.30;;;;;;;9.21;100.00;97853.94;6076725;29;20055;-94
2021/12/01 11:27:47;;;;;;;0.40;0.40;;;;;;;9.09;100.00;97843.25;6079529;29;20051;-94
2021/12/01 11:30:55;;;;;;;0.93;0.60;;;;;;;9.06;100.00;97828.91;6161883;23;20045;-93
2021/12/01 11:34:02;;;;;;;0.35;0.35;;;;;;;9.02;100.00;97830.28;6070264;29;20033;-94
2021/12/01 11:37:07;;;;;;;2.03;0.40;;;;;;;8.97;100.00;97816.31;6065795;29;20077;-94
2021/12/01 11:40:10;;;;;;;0.30;0.30;;;;;;;8.83;100.00;97829.00;6056560;29;20053;-93
2021/12/01 11:43:16;;;;;;;0.50;0.40;;;;;;;8.78;100.00;97813.25;6052517;29;20049;-93
2021/12/01 11:46:19;;;;;;;0.68;0.50;;;;;;;8.68;100.00;97822.25;6071286;29;20045;-94
2021/12/01 11:49:29;;;;;;;0.40;0.40;;;;;;;8.47;100.00;97800.53;6157009;23;20053;-94
2021/12/01 11:52:54;;;;;;;0.30;0.30;;;;;;;8.45;100.00;97802.47;6064593;29;20041;-94
2021/12/01 11:56:02;;;;;;;0.30;0.30;;;;;;;8.40;100.00;97781.56;6068373;29;20588;-94
2021/12/01 11:59:14;;;;;;;0.50;0.38;;;;;;;8.41;100.00;97765.91;6044223;29;20041;-93
2021/12/01 12:02:24;;;;;;;0.30;0.30;;;;;;;8.44;100.00;97784.59;6048491;29;20051;-94
2021/12/01 12:06:18;;;;;;;2.55;0.45;;;;;;;8.41;100.00;97788.31;6067112;29;20063;-92
2021/12/01 12:09:22;;;;;;;0.30;0.30;;;;;;;8.45;100.00;97783.59;6058980;29;20077;-93
2021/12/01 12:12:25;;;;;;;1.60;0.40;;;;;;;8.39;100.00;97787.66;6049964;29;20438;-94
2021/12/01 12:15:55;;;;;;;0.30;0.30;;;;;;;8.27;100.00;97769.22;6043343;29;20125;-93
2021/12/01 12:19:03;;;;;;;0.30;0.30;;;;;;;8.24;100.00;97773.94;6041242;29;20045;-94
2021/12/01 12:22:05;;;;;;;0.30;0.30;;;;;;;8.26;100.00;97775.38;6042996;29;20534;-93
2021/12/01 12:25:12;;;;;;;0.60;0.32;;;;;;;8.27;100.00;97752.97;6052008;29;20033;-94
2021/12/01 12:28:30;;;;;;;0.30;0.30;;;;;;;8.30;100.00;97745.69;6034111;29;20498;-94
2021/12/01 12:31:32;;;;;;;0.30;0.30;;;;;;;8.35;100.00;97748.56;6036341;29;20037;-94
2021/12/01 12:34:49;;;;;;;0.40;0.40;;;;;;;8.55;100.00;97745.50;6037342;29;20061;-93
2021/12/01 12:38:08;;;;;;;1.85;1.45;;;;;;;8.49;100.00;97736.66;6035491;29;20047;-93
2021/12/01 12:41:20;;;;;;;0.47;0.30;;;;;;;8.63;100.00;97727.34;6034584;29;20066;-94
2021/12/01 12:44:55;;;;;;;0.40;0.40;;;;;;;8.59;100.00;97721.75;6048727;29;20097;-93
2021/12/01 12:48:00;;;;;;;0.93;0.35;;;;;;;8.47;100.00;97730.91;6037695;29;20415;-94
2021/12/01 12:51:31;;;;;;;0.30;0.30;;;;;;;8.48;100.00;97721.41;6015204;29;20041;-93
2021/12/01 12:54:37;;;;;;;0.45;0.30;;;;;;;8.45;100.00;97714.00;6030579;29;20186;-93
2021/12/01 12:58:10;;;;;;;0.40;0.40;;;;;;;8.39;100.00;97718.88;6030231;29;20049;-94
2021/12/01 13:01:25;;;;;;;0.65;0.30;;;;;;;8.43;100.00;97729.66;6028120;29;20053;-94
2021/12/01 13:04:51;;;;;;;0.30;0.30;;;;;;;8.28;100.00;97727.03;6019048;29;20838;-93
2021/12/01 13:07:55;;;;;;;0.40;0.30;;;;;;;8.18;100.00;97736.78;6034559;29;20045;-93
2021/12/01 13:11:00;;;;;;;0.20;0.20;;;;;;;7.88;100.00;97729.00;6025419;29;20046;-92
2021/12/01 13:14:03;;;;;;;0.30;0.30;;;;;;;7.74;100.00;97727.16;6022009;29;20396;-92
2021/12/01 13:17:05;;;;;;;1.45;0.40;;;;;;;7.72;100.00;97723.94;6023896;29;20097;-91
2021/12/01 13:20:08;;;;;;;0.88;0.57;;;;;;;7.70;100.00;97719.00;6020845;29;20430;-91
2021/12/01 13:23:18;;;;;;;0.47;0.40;;;;;;;7.73;100.00;97717.84;6035181;29;20127;-90
2021/12/01 13:26:28;;;;;;;0.35;0.35;;;;;;;7.71;100.00;97699.97;6021258;29;20038;-91
2021/12/01 13:29:30;;;;;;;0.45;0.45;;;;;;;7.62;100.00;97702.78;6020670;29;20094;-91
2021/12/01 13:32:37;;;;;;;1.55;0.68;;;;;;;7.61;100.00;97722.59;6008284;29;21294;-91
2021/12/01 13:35:41;;;;;;;1.48;0.60;;;;;;;7.45;100.00;97723.50;6025295;29;20492;-91
2021/12/01 13:38:44;;;;;;;2.08;0.60;;;;;;;7.48;100.00;97715.44;6021095;29;20097;-91
2021/12/01 13:42:02;;;;;;;0.80;0.60;;;;;;;7.33;100.00;97724.88;6009400;29;20064;-91
2021/12/01 13:45:09;;;;;;;0.63;0.63;;;;;;;7.40;100.00;97723.19;6021476;29;20174;-92
2021/12/01 13:48:11;;;;;;;0.70;0.70;;;;;;;7.47;100.00;97725.88;6021039;29;20078;-91
2021/12/01 13:51:16;;;;;;;0.60;0.60;;;;;;;7.45;100.00;97726.06;6024443;29;20042;-92
2021/12/01 13:54:24;;;;;;;0.60;0.60;;;;;;;7.38;100.00;97720.00;6037235;29;20061;-90
2021/12/01 13:57:41;;;;;;;1.55;0.80;;;;;;;7.34;100.00;97719.53;6021576;29;20060;-92
2021/12/01 14:00:50;;;;;;;2.35;0.80;;;;;;;7.35;100.00;97717.75;6025036;29;20053;-91
2021/12/01 14:04:13;;;;;;;1.02;0.77;;;;;;;7.28;100.00;97707.34;6027560;29;20121;-92
2021/12/01 14:07:15;;;;;;;1.35;0.85;;;;;;;7.24;100.00;97711.22;6029574;29;20621;-92
2021/12/01 14:10:52;;;;;;;0.80;0.80;;;;;;;7.24;100.00;97705.28;6018553;29;20472;-92
2021/12/01 14:14:00;;;;;;;1.30;0.70;;;;;;;7.30;100.00;97702.84;6036246;29;20053;-91
2021/12/01 14:17:04;;;;;;;2.25;0.77;;;;;;;7.29;100.00;97705.56;6026962;29;20034;-93
2021/12/01 14:20:07;;;;;;;0.95;0.57;;;;;;;7.33;100.00;97712.00;6051133;29;20053;-93
2021/12/01 14:23:10;;;;;;;1.25;0.70;;;;;;;7.37;100.00;97697.00;6041784;29;20056;-92
2021/12/01 14:26:13;;;;;;;0.93;0.70;;;;;;;7.43;100.00;97694.56;6037196;29;20048;-93
2021/12/01 14:29:28;;;;;;;1.38;0.98;;;;;;;7.42;100.00;97698.09;6057253;29;20049;-91
2021/12/01 14:32:34;;;;;;;1.15;0.82;;;;;;;7.29;100.00;97693.50;6047181;29;20050;-93
2021/12/01 14:35:40;;;;;;;1.15;0.70;;;;;;;7.30;100.00;97705.41;6051629;29;21677;-93
2021/12/01 14:38:50;;;;;;;3.30;1.10;;;;;;;7.34;100.00;97705.88;6050144;29;20065;-93
2021/12/01 14:42:02;;;;;;;2.72;0.70;;;;;;;7.32;100.00;97690.59;6065065;29;20096;-94
2021/12/01 14:45:28;;;;;;;5.53;0.90;;;;;;;7.22;100.00;97692.59;6083378;23;20149;31
2021/12/01 14:48:35;;;;;;;1.30;0.80;;;;;;;7.16;100.00;97698.41;6479101;23;20027;31
2021/12/01 14:55:22;;;;;;;1.60;0.80;;;;;;;7.09;100.00;97695.72;6570476;23;20933;-93
2021/12/01 14:58:30;;;;;;;1.10;0.85;;;;;;;7.06;100.00;97687.53;6108578;29;20049;-93
2021/12/01 15:01:40;;;;;;;1.52;0.73;;;;;;;7.03;100.00;97695.56;6106426;23;20036;-91
2021/12/01 15:05:08;;;;;;;2.93;0.83;;;;;;;6.86;100.00;97664.81;6742528;23;20020;31
2021/12/01 15:08:18;;;;;;;1.23;0.90;;;;;;;6.72;100.00;97652.66;7118047;23;20026;31